createdAt,value
2018-04-10T00:04:15.026Z,93.70
2018-04-10T00:10:19.369Z,93.70
2018-04-10T00:16:23.757Z,93.70
2018-04-10T00:22:28.875Z,94.30
2018-04-10T00:28:33.216Z,94.30
2018-04-10T00:34:37.573Z,94.30
2018-04-10T00:40:41.919Z,94.60
2018-04-10T00:46:47.023Z,95.00
2018-04-10T00:52:51.372Z,95.00
2018-04-10T00:58:55.716Z,94.90
2018-04-10T01:05:00.093Z,95.20
2018-04-10T01:11:04.435Z,95.80
2018-04-10T01:17:08.790Z,95.80
2018-04-10T01:23:13.927Z,96.30
2018-04-10T01:29:18.262Z,96.20
2018-04-10T01:35:22.632Z,96.70
2018-04-10T01:41:27.747Z,96.70
2018-04-10T01:47:32.157Z,96.70
2018-04-10T01:53:36.526Z,96.50
2018-04-10T01:59:40.869Z,96.60
2018-04-10T02:05:45.219Z,97.20
2018-04-10T02:20:14.000Z,97.30
2018-04-10T02:26:18.486Z,97.80
2018-04-10T02:32:22.892Z,97.70
2018-04-10T02:38:27.339Z,97.70
2018-04-10T02:44:31.764Z,97.80
2018-04-10T02:50:36.305Z,97.90
2018-04-10T02:56:40.896Z,97.80
2018-04-10T03:02:45.387Z,97.90
2018-04-10T03:08:49.754Z,98.30
2018-04-10T03:14:54.306Z,98.20
2018-04-10T03:20:58.855Z,98.40
2018-04-10T03:27:03.217Z,98.50
2018-04-10T03:33:07.594Z,98.70
2018-04-10T03:39:12.453Z,98.60
2018-04-10T03:45:17.002Z,98.70
2018-04-10T03:51:21.423Z,98.60
2018-04-10T03:57:25.842Z,98.80
2018-04-10T04:03:30.207Z,98.70
2018-04-10T04:09:35.479Z,99.90
2018-04-10T04:15:40.314Z,99.90
2018-04-10T04:22:07.341Z,99.90
2018-04-10T04:28:11.722Z,99.90
2018-04-10T04:34:16.095Z,99.90
2018-04-10T04:40:20.592Z,99.90
2018-04-10T04:46:24.960Z,99.90
2018-04-10T04:52:29.483Z,99.90
2018-04-10T04:58:34.637Z,99.90
2018-04-10T05:04:39.062Z,99.90
2018-04-10T05:10:44.700Z,99.90
2018-04-10T05:16:49.231Z,99.90
2018-04-10T05:22:54.347Z,99.90
2018-04-10T05:28:59.649Z,99.90
2018-04-10T05:35:04.339Z,99.90
2018-04-10T05:41:08.772Z,99.90
2018-04-10T05:47:14.315Z,99.90
2018-04-10T05:53:18.680Z,99.90
2018-04-10T05:59:23.175Z,99.90
2018-04-10T06:05:27.543Z,99.90
2018-04-10T06:11:31.971Z,99.90
2018-04-10T06:17:37.123Z,99.90
2018-04-10T06:23:41.917Z,99.90
2018-04-10T06:29:47.516Z,99.90
2018-04-10T06:35:51.920Z,99.90
2018-04-10T06:41:56.285Z,99.90
2018-04-10T06:48:00.961Z,99.90
2018-04-10T06:54:05.486Z,99.80
2018-04-10T07:00:10.069Z,96.20
2018-04-10T07:06:14.540Z,88.10
2018-04-10T07:12:18.903Z,75.00
2018-04-10T07:18:24.024Z,66.50
2018-04-10T07:24:28.477Z,66.50
2018-04-10T07:30:33.704Z,81.10
2018-04-10T07:36:38.062Z,81.00
2018-04-10T07:42:43.047Z,84.30
2018-04-10T07:48:47.622Z,86.30
2018-04-10T07:54:52.081Z,88.50
2018-04-10T08:00:57.297Z,87.50
2018-04-10T08:07:02.776Z,87.50
2018-04-10T08:13:07.971Z,82.10
2018-04-10T08:19:13.011Z,81.40
2018-04-10T08:25:17.470Z,79.60
2018-04-10T08:31:21.824Z,80.10
2018-04-10T08:37:26.226Z,77.50
2018-04-10T08:43:30.589Z,76.90
2018-04-10T08:49:34.966Z,79.20
2018-04-10T08:55:39.438Z,79.00
2018-04-10T09:01:44.064Z,77.20
2018-04-10T09:07:48.494Z,73.80
2018-04-10T09:13:52.860Z,69.50
2018-04-10T09:19:57.563Z,64.60
2018-04-10T09:26:02.090Z,65.10
2018-04-10T09:32:08.110Z,59.20
2018-04-10T09:38:13.124Z,59.20
2018-04-10T09:44:17.499Z,57.50
2018-04-10T09:50:21.879Z,53.70
2018-04-10T09:56:26.553Z,52.40
2018-04-10T10:02:31.113Z,51.70
2018-04-10T10:08:35.512Z,47.20
2018-04-10T10:14:39.945Z,45.20
2018-04-10T10:20:44.717Z,44.00
2018-04-10T10:26:49.098Z,43.50
2018-04-10T10:32:53.641Z,43.70
2018-04-10T10:38:58.011Z,41.80
2018-04-10T10:45:02.377Z,37.20
2018-04-10T10:51:06.741Z,37.60
2018-04-10T10:57:11.761Z,38.80
2018-04-10T11:03:16.192Z,36.40
2018-04-10T11:09:20.570Z,37.70
2018-04-10T11:15:25.055Z,38.90
2018-04-10T11:21:30.201Z,36.50
2018-04-10T11:27:34.641Z,36.40
2018-04-10T11:33:39.047Z,37.30
2018-04-10T11:39:43.415Z,36.90
2018-04-10T11:45:47.875Z,36.30
2018-04-10T11:51:52.288Z,35.90
2018-04-10T11:57:56.702Z,36.10
2018-04-10T12:04:01.130Z,35.60
2018-04-10T12:10:05.580Z,34.40
2018-04-10T12:16:10.297Z,33.00
2018-04-10T12:22:14.852Z,33.60
2018-04-10T12:28:19.340Z,34.90
2018-04-10T12:34:23.790Z,36.80
2018-04-10T12:40:28.171Z,35.00
2018-04-10T12:46:32.546Z,36.30
2018-04-10T12:52:36.922Z,36.80
2018-04-10T12:58:41.332Z,34.30
2018-04-10T13:04:45.718Z,33.10
2018-04-10T13:10:50.172Z,35.90
2018-04-10T13:16:55.036Z,35.00
2018-04-10T13:22:59.454Z,34.10
2018-04-10T13:29:03.909Z,34.40
2018-04-10T13:35:08.444Z,34.40
2018-04-10T13:41:13.634Z,34.60
2018-04-10T13:47:18.113Z,34.70
2018-04-10T13:53:23.252Z,33.80
2018-04-10T13:59:27.761Z,33.80
2018-04-10T14:05:32.143Z,35.90
2018-04-10T14:11:36.731Z,39.10
2018-04-10T14:17:42.608Z,38.90
2018-04-10T14:23:47.212Z,38.90
2018-04-10T14:29:51.585Z,38.40
2018-04-10T14:35:55.966Z,37.10
2018-04-10T14:42:01.092Z,35.50
2018-04-10T14:48:05.502Z,35.50
2018-04-10T14:54:10.099Z,36.30
2018-04-10T15:00:14.729Z,39.20
2018-04-10T15:06:19.093Z,41.30
2018-04-10T15:12:23.477Z,43.60
2018-04-10T15:18:27.833Z,44.20
2018-04-10T15:24:32.257Z,45.50
2018-04-10T15:30:36.716Z,44.70
2018-04-10T15:36:41.291Z,46.00
2018-04-10T15:42:46.425Z,48.60
2018-04-10T15:48:50.815Z,48.50
2018-04-10T15:54:55.218Z,50.50
2018-04-10T16:00:59.586Z,52.80
2018-04-10T16:07:04.713Z,43.10
2018-04-10T16:13:09.176Z,43.10
2018-04-10T16:19:13.964Z,42.80
2018-04-10T16:25:18.413Z,41.60
2018-04-10T16:31:23.543Z,40.20
2018-04-10T16:37:27.942Z,40.10
2018-04-10T16:43:32.300Z,41.40
2018-04-10T16:49:36.685Z,40.00
2018-04-10T16:55:42.367Z,40.80
2018-04-10T17:01:46.778Z,42.70
2018-04-10T17:07:51.169Z,44.80
2018-04-10T17:13:56.446Z,47.40
2018-04-10T17:20:01.712Z,50.10
2018-04-10T17:26:06.084Z,49.50
2018-04-10T17:32:10.544Z,51.00
2018-04-10T17:38:15.184Z,52.80
2018-04-10T17:44:19.561Z,52.60
2018-04-10T17:50:23.939Z,53.80
2018-04-10T17:56:28.341Z,56.10
2018-04-10T18:02:32.722Z,57.60
2018-04-10T18:08:37.077Z,60.80
2018-04-10T18:14:43.027Z,70.50
2018-04-10T18:20:47.480Z,70.50
2018-04-10T18:26:52.107Z,72.80
2018-04-10T18:32:56.480Z,73.90
2018-04-10T18:39:00.826Z,74.00
2018-04-10T18:45:05.292Z,75.10
2018-04-10T18:51:09.719Z,76.30
2018-04-10T18:57:14.198Z,77.00
2018-04-10T19:03:18.548Z,76.30
2018-04-10T19:09:22.960Z,74.20
2018-04-10T19:15:27.310Z,73.40
2018-04-10T19:21:31.745Z,72.40
2018-04-10T19:27:36.098Z,72.00
2018-04-10T19:33:41.368Z,78.70
2018-04-10T19:39:45.750Z,78.70
2018-04-10T19:45:50.248Z,79.20
2018-04-10T19:51:54.605Z,81.00
2018-04-10T19:57:58.975Z,80.10
2018-04-10T20:04:03.384Z,81.40
2018-04-10T20:10:07.767Z,81.10
2018-04-10T20:16:12.922Z,82.50
2018-04-10T20:22:18.057Z,82.70
2018-04-10T20:28:22.418Z,82.30
2018-04-10T20:34:26.775Z,80.90
2018-04-10T20:40:31.147Z,82.20
2018-04-10T20:46:35.539Z,82.70
2018-04-10T20:52:40.370Z,80.40
2018-04-10T20:58:45.559Z,79.30
2018-04-10T21:04:50.069Z,79.20
2018-04-10T21:10:54.453Z,80.20
2018-04-10T21:16:59.570Z,80.20
2018-04-10T21:23:03.932Z,79.90
2018-04-10T21:29:08.308Z,80.00
2018-04-10T21:35:13.482Z,80.30
2018-04-10T21:41:17.883Z,80.20
2018-04-10T21:47:22.252Z,81.20
2018-04-10T21:53:27.414Z,81.20
2018-04-10T21:59:31.822Z,81.20
2018-04-10T22:05:37.017Z,83.10
2018-04-10T22:11:42.228Z,83.60
2018-04-10T22:17:46.623Z,83.60
2018-04-10T22:23:50.982Z,83.60
2018-04-10T22:29:55.330Z,83.70
2018-04-10T22:36:00.415Z,83.70
2018-04-10T22:42:04.782Z,83.70
2018-04-10T22:48:09.137Z,84.50
2018-04-10T22:54:15.187Z,85.80
2018-04-10T23:00:33.139Z,85.70
2018-04-10T23:06:37.195Z,84.80
2018-04-10T23:12:43.263Z,86.70
2018-04-10T23:18:47.699Z,86.50
2018-04-10T23:24:52.082Z,87.80
2018-04-10T23:30:56.431Z,88.20
2018-04-10T23:37:00.808Z,88.30
2018-04-10T23:43:05.186Z,87.00
2018-04-10T23:49:09.861Z,87.00
2018-04-10T23:55:14.231Z,87.40
